sensor_id;sensor_type;location;lat;lon;timestamp;P1;durP1;ratioP1;P2;durP2;ratioP2
12675;SDS011;63820;65.654;21.944;2024-01-10T00:00:48;6.23;;;3.73;;
12675;SDS011;63820;65.654;21.944;2024-01-10T00:03:32;9.03;;;3.73;;
12675;SDS011;63820;65.654;21.944;2024-01-10T00:06:16;7.40;;;3.40;;
12675;SDS011;63820;65.654;21.944;2024-01-10T00:08:59;5.97;;;3.10;;
12675;SDS011;63820;65.654;21.944;2024-01-10T00:11:43;6.97;;;3.47;;
12675;SDS011;63820;65.654;21.944;2024-01-10T00:14:27;5.93;;;3.33;;
12675;SDS011;63820;65.654;21.944;2024-01-10T00:17:11;6.37;;;2.90;;
12675;SDS011;63820;65.654;21.944;2024-01-10T00:19:55;6.97;;;3.53;;
12675;SDS011;63820;65.654;21.944;2024-01-10T00:22:39;6.63;;;3.43;;
12675;SDS011;63820;65.654;21.944;2024-01-10T00:25:24;6.20;;;3.20;;
12675;SDS011;63820;65.654;21.944;2024-01-10T00:28:08;5.47;;;2.93;;
12675;SDS011;63820;65.654;21.944;2024-01-10T00:30:51;4.50;;;2.60;;
12675;SDS011;63820;65.654;21.944;2024-01-10T00:33:35;5.23;;;3.07;;
12675;SDS011;63820;65.654;21.944;2024-01-10T00:36:19;6.80;;;3.10;;
12675;SDS011;63820;65.654;21.944;2024-01-10T00:39:03;5.50;;;3.03;;
12675;SDS011;63820;65.654;21.944;2024-01-10T00:41:47;5.93;;;3.07;;
12675;SDS011;63820;65.654;21.944;2024-01-10T00:44:32;5.13;;;3.00;;
12675;SDS011;63820;65.654;21.944;2024-01-10T00:47:15;6.60;;;3.10;;
12675;SDS011;63820;65.654;21.944;2024-01-10T00:50:00;6.80;;;3.60;;
12675;SDS011;63820;65.654;21.944;2024-01-10T00:52:44;5.97;;;3.63;;
12675;SDS011;63820;65.654;21.944;2024-01-10T00:55:29;5.23;;;3.13;;
12675;SDS011;63820;65.654;21.944;2024-01-10T00:58:13;5.90;;;3.53;;
12675;SDS011;63820;65.654;21.944;2024-01-10T01:00:57;5.83;;;3.33;;
12675;SDS011;63820;65.654;21.944;2024-01-10T01:03:41;5.50;;;2.80;;
12675;SDS011;63820;65.654;21.944;2024-01-10T01:06:25;5.07;;;2.90;;
12675;SDS011;63820;65.654;21.944;2024-01-10T01:09:09;5.33;;;3.37;;
12675;SDS011;63820;65.654;21.944;2024-01-10T01:11:53;7.50;;;3.40;;
12675;SDS011;63820;65.654;21.944;2024-01-10T01:14:37;5.60;;;3.40;;
12675;SDS011;63820;65.654;21.944;2024-01-10T01:17:21;5.33;;;2.70;;
12675;SDS011;63820;65.654;21.944;2024-01-10T01:20:05;6.13;;;3.43;;
12675;SDS011;63820;65.654;21.944;2024-01-10T01:22:50;5.53;;;3.30;;
12675;SDS011;63820;65.654;21.944;2024-01-10T01:25:35;6.40;;;3.43;;
12675;SDS011;63820;65.654;21.944;2024-01-10T01:28:19;6.77;;;3.50;;
12675;SDS011;63820;65.654;21.944;2024-01-10T01:31:03;6.13;;;3.23;;
12675;SDS011;63820;65.654;21.944;2024-01-10T01:33:47;4.77;;;2.87;;
12675;SDS011;63820;65.654;21.944;2024-01-10T01:36:31;5.60;;;3.20;;
12675;SDS011;63820;65.654;21.944;2024-01-10T01:39:15;4.83;;;3.10;;
12675;SDS011;63820;65.654;21.944;2024-01-10T01:41:59;5.97;;;3.10;;
12675;SDS011;63820;65.654;21.944;2024-01-10T01:44:43;5.43;;;3.30;;
12675;SDS011;63820;65.654;21.944;2024-01-10T01:47:27;5.27;;;3.13;;
12675;SDS011;63820;65.654;21.944;2024-01-10T01:50:11;5.17;;;3.20;;
12675;SDS011;63820;65.654;21.944;2024-01-10T01:52:55;5.03;;;2.90;;
12675;SDS011;63820;65.654;21.944;2024-01-10T01:55:39;5.00;;;3.30;;
12675;SDS011;63820;65.654;21.944;2024-01-10T01:58:25;4.40;;;2.73;;
12675;SDS011;63820;65.654;21.944;2024-01-10T02:01:10;5.53;;;2.93;;
12675;SDS011;63820;65.654;21.944;2024-01-10T02:03:56;3.70;;;2.80;;
12675;SDS011;63820;65.654;21.944;2024-01-10T02:06:40;5.57;;;3.43;;
12675;SDS011;63820;65.654;21.944;2024-01-10T02:09:25;4.40;;;3.10;;
12675;SDS011;63820;65.654;21.944;2024-01-10T02:12:09;5.30;;;3.00;;
12675;SDS011;63820;65.654;21.944;2024-01-10T02:14:53;4.10;;;2.60;;
12675;SDS011;63820;65.654;21.944;2024-01-10T02:17:37;4.50;;;2.50;;
12675;SDS011;63820;65.654;21.944;2024-01-10T02:20:21;4.33;;;2.60;;
12675;SDS011;63820;65.654;21.944;2024-01-10T02:23:05;4.60;;;2.27;;
12675;SDS011;63820;65.654;21.944;2024-01-10T02:25:50;4.63;;;2.60;;
12675;SDS011;63820;65.654;21.944;2024-01-10T02:28:33;3.77;;;2.50;;
12675;SDS011;63820;65.654;21.944;2024-01-10T02:31:18;4.63;;;2.73;;
12675;SDS011;63820;65.654;21.944;2024-01-10T02:34:01;4.10;;;2.47;;
12675;SDS011;63820;65.654;21.944;2024-01-10T02:36:46;3.57;;;2.27;;
12675;SDS011;63820;65.654;21.944;2024-01-10T02:39:29;3.23;;;2.17;;
12675;SDS011;63820;65.654;21.944;2024-01-10T02:42:13;3.00;;;1.77;;
12675;SDS011;63820;65.654;21.944;2024-01-10T02:44:57;4.73;;;2.30;;
12675;SDS011;63820;65.654;21.944;2024-01-10T02:47:42;3.97;;;2.20;;
12675;SDS011;63820;65.654;21.944;2024-01-10T02:50:26;2.70;;;1.93;;
12675;SDS011;63820;65.654;21.944;2024-01-10T02:53:10;2.83;;;2.10;;
12675;SDS011;63820;65.654;21.944;2024-01-10T02:55:54;2.53;;;1.90;;
12675;SDS011;63820;65.654;21.944;2024-01-10T02:58:38;3.23;;;2.20;;
12675;SDS011;63820;65.654;21.944;2024-01-10T03:01:22;4.20;;;2.30;;
12675;SDS011;63820;65.654;21.944;2024-01-10T03:04:06;3.63;;;2.23;;
12675;SDS011;63820;65.654;21.944;2024-01-10T03:06:50;3.70;;;2.33;;
12675;SDS011;63820;65.654;21.944;2024-01-10T03:09:34;3.97;;;1.90;;
12675;SDS011;63820;65.654;21.944;2024-01-10T03:12:18;5.00;;;2.30;;
12675;SDS011;63820;65.654;21.944;2024-01-10T03:15:02;3.10;;;2.33;;
12675;SDS011;63820;65.654;21.944;2024-01-10T03:17:46;5.07;;;2.80;;
12675;SDS011;63820;65.654;21.944;2024-01-10T03:20:30;3.30;;;2.10;;
12675;SDS011;63820;65.654;21.944;2024-01-10T03:23:14;3.50;;;2.37;;
12675;SDS011;63820;65.654;21.944;2024-01-10T03:25:58;3.67;;;2.03;;
12675;SDS011;63820;65.654;21.944;2024-01-10T03:28:42;4.30;;;2.23;;
12675;SDS011;63820;65.654;21.944;2024-01-10T03:31:27;3.70;;;2.10;;
12675;SDS011;63820;65.654;21.944;2024-01-10T03:34:12;3.37;;;2.00;;
12675;SDS011;63820;65.654;21.944;2024-01-10T03:36:56;2.77;;;2.00;;
12675;SDS011;63820;65.654;21.944;2024-01-10T03:39:40;3.60;;;2.10;;
12675;SDS011;63820;65.654;21.944;2024-01-10T03:42:24;3.50;;;2.27;;
12675;SDS011;63820;65.654;21.944;2024-01-10T03:45:08;3.23;;;2.10;;
12675;SDS011;63820;65.654;21.944;2024-01-10T03:47:52;3.60;;;2.17;;
12675;SDS011;63820;65.654;21.944;2024-01-10T03:50:36;3.07;;;2.20;;
12675;SDS011;63820;65.654;21.944;2024-01-10T03:53:20;2.80;;;2.17;;
12675;SDS011;63820;65.654;21.944;2024-01-10T03:56:04;3.80;;;2.30;;
12675;SDS011;63820;65.654;21.944;2024-01-10T03:58:49;4.17;;;1.97;;
12675;SDS011;63820;65.654;21.944;2024-01-10T04:01:33;3.33;;;2.30;;
12675;SDS011;63820;65.654;21.944;2024-01-10T04:04:17;4.20;;;2.50;;
12675;SDS011;63820;65.654;21.944;2024-01-10T04:07:01;3.47;;;1.97;;
12675;SDS011;63820;65.654;21.944;2024-01-10T04:09:45;3.50;;;2.23;;
12675;SDS011;63820;65.654;21.944;2024-01-10T04:12:29;3.50;;;1.90;;
12675;SDS011;63820;65.654;21.944;2024-01-10T04:15:13;3.43;;;2.17;;
12675;SDS011;63820;65.654;21.944;2024-01-10T04:17:57;3.10;;;2.00;;
12675;SDS011;63820;65.654;21.944;2024-01-10T04:20:41;4.13;;;2.53;;
12675;SDS011;63820;65.654;21.944;2024-01-10T04:23:26;5.00;;;2.43;;
12675;SDS011;63820;65.654;21.944;2024-01-10T04:26:10;3.23;;;2.10;;
12675;SDS011;63820;65.654;21.944;2024-01-10T04:28:54;4.03;;;2.20;;
12675;SDS011;63820;65.654;21.944;2024-01-10T04:31:38;3.30;;;1.83;;
12675;SDS011;63820;65.654;21.944;2024-01-10T04:34:22;2.80;;;1.53;;
12675;SDS011;63820;65.654;21.944;2024-01-10T04:37:08;1.87;;;1.40;;
12675;SDS011;63820;65.654;21.944;2024-01-10T04:39:52;1.33;;;0.83;;
12675;SDS011;63820;65.654;21.944;2024-01-10T04:42:36;3.57;;;1.70;;
12675;SDS011;63820;65.654;21.944;2024-01-10T04:45:20;2.43;;;1.63;;
12675;SDS011;63820;65.654;21.944;2024-01-10T04:48:04;2.60;;;1.53;;
12675;SDS011;63820;65.654;21.944;2024-01-10T04:50:49;2.03;;;1.13;;
12675;SDS011;63820;65.654;21.944;2024-01-10T04:53:33;2.17;;;1.40;;
12675;SDS011;63820;65.654;21.944;2024-01-10T04:56:17;1.90;;;1.10;;
12675;SDS011;63820;65.654;21.944;2024-01-10T04:59:02;0.97;;;0.87;;
12675;SDS011;63820;65.654;21.944;2024-01-10T05:01:47;1.37;;;0.90;;
12675;SDS011;63820;65.654;21.944;2024-01-10T05:04:30;0.60;;;0.60;;
12675;SDS011;63820;65.654;21.944;2024-01-10T05:07:14;0.87;;;0.70;;
12675;SDS011;63820;65.654;21.944;2024-01-10T05:09:59;1.83;;;1.03;;
12675;SDS011;63820;65.654;21.944;2024-01-10T05:12:43;2.20;;;1.10;;
12675;SDS011;63820;65.654;21.944;2024-01-10T05:15:27;0.97;;;0.70;;
12675;SDS011;63820;65.654;21.944;2024-01-10T05:18:12;1.07;;;0.97;;
12675;SDS011;63820;65.654;21.944;2024-01-10T05:20:56;0.67;;;0.57;;
12675;SDS011;63820;65.654;21.944;2024-01-10T05:23:41;1.07;;;0.73;;
12675;SDS011;63820;65.654;21.944;2024-01-10T05:26:25;1.03;;;0.80;;
12675;SDS011;63820;65.654;21.944;2024-01-10T05:29:09;0.40;;;0.40;;
12675;SDS011;63820;65.654;21.944;2024-01-10T05:31:53;0.93;;;0.70;;
12675;SDS011;63820;65.654;21.944;2024-01-10T05:34:36;0.67;;;0.50;;
12675;SDS011;63820;65.654;21.944;2024-01-10T05:37:20;0.73;;;0.50;;
12675;SDS011;63820;65.654;21.944;2024-01-10T05:40:06;0.80;;;0.60;;
12675;SDS011;63820;65.654;21.944;2024-01-10T05:42:50;1.00;;;0.70;;
12675;SDS011;63820;65.654;21.944;2024-01-10T05:45:34;1.30;;;0.70;;
12675;SDS011;63820;65.654;21.944;2024-01-10T05:48:18;0.77;;;0.60;;
12675;SDS011;63820;65.654;21.944;2024-01-10T05:51:02;1.60;;;0.60;;
12675;SDS011;63820;65.654;21.944;2024-01-10T05:53:46;0.83;;;0.50;;
12675;SDS011;63820;65.654;21.944;2024-01-10T05:56:30;0.30;;;0.30;;
12675;SDS011;63820;65.654;21.944;2024-01-10T05:59:14;0.30;;;0.30;;
12675;SDS011;63820;65.654;21.944;2024-01-10T06:02:00;0.37;;;0.37;;
12675;SDS011;63820;65.654;21.944;2024-01-10T06:04:46;0.50;;;0.50;;
12675;SDS011;63820;65.654;21.944;2024-01-10T06:07:30;0.30;;;0.30;;
12675;SDS011;63820;65.654;21.944;2024-01-10T06:10:14;0.30;;;0.30;;
12675;SDS011;63820;65.654;21.944;2024-01-10T06:12:58;0.30;;;0.30;;
12675;SDS011;63820;65.654;21.944;2024-01-10T06:15:42;0.33;;;0.33;;
12675;SDS011;63820;65.654;21.944;2024-01-10T06:18:26;0.30;;;0.30;;
12675;SDS011;63820;65.654;21.944;2024-01-10T06:21:10;0.30;;;0.30;;
12675;SDS011;63820;65.654;21.944;2024-01-10T06:23:54;0.50;;;0.50;;
12675;SDS011;63820;65.654;21.944;2024-01-10T06:26:38;0.47;;;0.47;;
12675;SDS011;63820;65.654;21.944;2024-01-10T06:29:22;0.40;;;0.40;;
12675;SDS011;63820;65.654;21.944;2024-01-10T06:32:06;1.37;;;0.50;;
12675;SDS011;63820;65.654;21.944;2024-01-10T06:34:51;0.50;;;0.50;;
12675;SDS011;63820;65.654;21.944;2024-01-10T06:37:35;0.40;;;0.40;;
12675;SDS011;63820;65.654;21.944;2024-01-10T06:40:19;0.40;;;0.40;;
12675;SDS011;63820;65.654;21.944;2024-01-10T06:43:05;0.57;;;0.43;;
12675;SDS011;63820;65.654;21.944;2024-01-10T06:45:52;0.40;;;0.40;;
12675;SDS011;63820;65.654;21.944;2024-01-10T06:48:36;0.30;;;0.30;;
12675;SDS011;63820;65.654;21.944;2024-01-10T06:51:20;0.40;;;0.33;;
12675;SDS011;63820;65.654;21.944;2024-01-10T06:54:05;0.20;;;0.20;;
12675;SDS011;63820;65.654;21.944;2024-01-10T06:56:49;0.23;;;0.23;;
12675;SDS011;63820;65.654;21.944;2024-01-10T06:59:33;0.40;;;0.20;;
12675;SDS011;63820;65.654;21.944;2024-01-10T07:02:17;0.20;;;0.20;;
12675;SDS011;63820;65.654;21.944;2024-01-10T07:05:01;0.20;;;0.20;;
12675;SDS011;63820;65.654;21.944;2024-01-10T07:07:45;0.17;;;0.17;;
12675;SDS011;63820;65.654;21.944;2024-01-10T07:10:29;0.20;;;0.20;;
12675;SDS011;63820;65.654;21.944;2024-01-10T07:13:13;0.20;;;0.20;;
12675;SDS011;63820;65.654;21.944;2024-01-10T07:15:57;0.20;;;0.20;;
12675;SDS011;63820;65.654;21.944;2024-01-10T07:18:41;0.33;;;0.30;;
12675;SDS011;63820;65.654;21.944;2024-01-10T07:21:25;0.20;;;0.20;;
12675;SDS011;63820;65.654;21.944;2024-01-10T07:24:09;0.20;;;0.20;;
12675;SDS011;63820;65.654;21.944;2024-01-10T07:26:53;0.20;;;0.20;;
12675;SDS011;63820;65.654;21.944;2024-01-10T07:29:37;0.20;;;0.20;;
12675;SDS011;63820;65.654;21.944;2024-01-10T07:32:21;0.20;;;0.20;;
12675;SDS011;63820;65.654;21.944;2024-01-10T07:35:05;0.20;;;0.20;;
12675;SDS011;63820;65.654;21.944;2024-01-10T07:37:53;0.30;;;0.30;;
12675;SDS011;63820;65.654;21.944;2024-01-10T07:40:37;0.20;;;0.20;;
12675;SDS011;63820;65.654;21.944;2024-01-10T07:43:21;0.30;;;0.30;;
12675;SDS011;63820;65.654;21.944;2024-01-10T07:46:04;0.30;;;0.30;;
12675;SDS011;63820;65.654;21.944;2024-01-10T07:48:48;0.20;;;0.20;;
12675;SDS011;63820;65.654;21.944;2024-01-10T07:51:33;0.30;;;0.30;;
12675;SDS011;63820;65.654;21.944;2024-01-10T07:54:17;0.20;;;0.20;;
12675;SDS011;63820;65.654;21.944;2024-01-10T07:57:01;0.20;;;0.20;;
12675;SDS011;63820;65.654;21.944;2024-01-10T07:59:46;0.30;;;0.30;;
12675;SDS011;63820;65.654;21.944;2024-01-10T08:02:30;0.30;;;0.27;;
12675;SDS011;63820;65.654;21.944;2024-01-10T08:05:17;0.20;;;0.20;;
12675;SDS011;63820;65.654;21.944;2024-01-10T08:08:02;0.30;;;0.20;;
12675;SDS011;63820;65.654;21.944;2024-01-10T08:10:47;0.20;;;0.20;;
12675;SDS011;63820;65.654;21.944;2024-01-10T08:13:31;0.30;;;0.30;;
12675;SDS011;63820;65.654;21.944;2024-01-10T08:16:14;0.20;;;0.20;;
12675;SDS011;63820;65.654;21.944;2024-01-10T08:18:59;0.20;;;0.20;;
12675;SDS011;63820;65.654;21.944;2024-01-10T08:21:42;0.20;;;0.20;;
12675;SDS011;63820;65.654;21.944;2024-01-10T08:24:27;0.30;;;0.30;;
12675;SDS011;63820;65.654;21.944;2024-01-10T08:27:11;0.20;;;0.20;;
12675;SDS011;63820;65.654;21.944;2024-01-10T08:29:55;0.20;;;0.20;;
12675;SDS011;63820;65.654;21.944;2024-01-10T08:32:39;0.20;;;0.20;;
12675;SDS011;63820;65.654;21.944;2024-01-10T08:35:23;0.20;;;0.20;;
12675;SDS011;63820;65.654;21.944;2024-01-10T08:38:07;0.20;;;0.20;;
12675;SDS011;63820;65.654;21.944;2024-01-10T08:40:51;0.30;;;0.30;;
12675;SDS011;63820;65.654;21.944;2024-01-10T08:43:35;0.20;;;0.20;;
12675;SDS011;63820;65.654;21.944;2024-01-10T08:46:19;0.10;;;0.10;;
12675;SDS011;63820;65.654;21.944;2024-01-10T08:49:04;0.10;;;0.10;;
12675;SDS011;63820;65.654;21.944;2024-01-10T08:51:48;0.20;;;0.20;;
12675;SDS011;63820;65.654;21.944;2024-01-10T08:54:33;0.10;;;0.10;;
12675;SDS011;63820;65.654;21.944;2024-01-10T08:57:17;0.20;;;0.20;;
12675;SDS011;63820;65.654;21.944;2024-01-10T09:00:01;0.10;;;0.10;;
12675;SDS011;63820;65.654;21.944;2024-01-10T09:02:49;0.20;;;0.20;;
12675;SDS011;63820;65.654;21.944;2024-01-10T09:05:33;0.10;;;0.10;;
12675;SDS011;63820;65.654;21.944;2024-01-10T09:08:17;0.20;;;0.20;;
12675;SDS011;63820;65.654;21.944;2024-01-10T09:11:01;0.20;;;0.20;;
12675;SDS011;63820;65.654;21.944;2024-01-10T09:13:46;0.23;;;0.23;;
12675;SDS011;63820;65.654;21.944;2024-01-10T09:16:30;0.20;;;0.20;;
12675;SDS011;63820;65.654;21.944;2024-01-10T09:19:14;0.20;;;0.20;;
12675;SDS011;63820;65.654;21.944;2024-01-10T09:21:58;0.20;;;0.20;;
12675;SDS011;63820;65.654;21.944;2024-01-10T09:24:41;0.13;;;0.13;;
12675;SDS011;63820;65.654;21.944;2024-01-10T09:27:25;0.20;;;0.20;;
12675;SDS011;63820;65.654;21.944;2024-01-10T09:30:09;0.10;;;0.10;;
12675;SDS011;63820;65.654;21.944;2024-01-10T09:32:54;0.20;;;0.20;;
12675;SDS011;63820;65.654;21.944;2024-01-10T09:35:40;0.20;;;0.20;;
12675;SDS011;63820;65.654;21.944;2024-01-10T09:38:25;0.73;;;0.60;;
12675;SDS011;63820;65.654;21.944;2024-01-10T09:41:09;1.00;;;0.70;;
12675;SDS011;63820;65.654;21.944;2024-01-10T09:43:55;0.20;;;0.20;;
12675;SDS011;63820;65.654;21.944;2024-01-10T09:46:40;0.20;;;0.20;;
12675;SDS011;63820;65.654;21.944;2024-01-10T09:49:27;0.13;;;0.13;;
12675;SDS011;63820;65.654;21.944;2024-01-10T09:52:23;0.10;;;0.10;;
12675;SDS011;63820;65.654;21.944;2024-01-10T09:55:09;0.20;;;0.20;;
12675;SDS011;63820;65.654;21.944;2024-01-10T09:57:54;0.83;;;0.20;;
12675;SDS011;63820;65.654;21.944;2024-01-10T10:00:38;0.20;;;0.20;;
12675;SDS011;63820;65.654;21.944;2024-01-10T10:03:24;0.20;;;0.20;;
12675;SDS011;63820;65.654;21.944;2024-01-10T10:06:09;5.63;;;4.33;;
12675;SDS011;63820;65.654;21.944;2024-01-10T10:08:53;2.67;;;2.47;;
12675;SDS011;63820;65.654;21.944;2024-01-10T10:11:37;0.20;;;0.20;;
12675;SDS011;63820;65.654;21.944;2024-01-10T10:14:21;0.20;;;0.20;;
12675;SDS011;63820;65.654;21.944;2024-01-10T10:17:18;1.00;;;0.80;;
12675;SDS011;63820;65.654;21.944;2024-01-10T10:20:03;1.23;;;1.03;;
12675;SDS011;63820;65.654;21.944;2024-01-10T10:25:44;0.70;;;0.30;;
12675;SDS011;63820;65.654;21.944;2024-01-10T10:28:29;0.20;;;0.20;;
12675;SDS011;63820;65.654;21.944;2024-01-10T10:31:18;0.20;;;0.20;;
12675;SDS011;63820;65.654;21.944;2024-01-10T10:34:03;0.20;;;0.20;;
12675;SDS011;63820;65.654;21.944;2024-01-10T10:36:47;0.20;;;0.20;;
12675;SDS011;63820;65.654;21.944;2024-01-10T10:39:31;0.20;;;0.20;;
12675;SDS011;63820;65.654;21.944;2024-01-10T10:42:15;0.20;;;0.20;;
12675;SDS011;63820;65.654;21.944;2024-01-10T10:45:02;0.20;;;0.20;;
12675;SDS011;63820;65.654;21.944;2024-01-10T10:47:47;0.20;;;0.20;;
12675;SDS011;63820;65.654;21.944;2024-01-10T10:50:34;0.20;;;0.20;;
12675;SDS011;63820;65.654;21.944;2024-01-10T10:53:20;0.20;;;0.20;;
12675;SDS011;63820;65.654;21.944;2024-01-10T10:56:07;0.20;;;0.20;;
12675;SDS011;63820;65.654;21.944;2024-01-10T10:58:52;0.17;;;0.17;;
12675;SDS011;63820;65.654;21.944;2024-01-10T11:01:38;0.20;;;0.20;;
12675;SDS011;63820;65.654;21.944;2024-01-10T11:04:24;0.20;;;0.20;;
12675;SDS011;63820;65.654;21.944;2024-01-10T11:07:08;0.20;;;0.20;;
12675;SDS011;63820;65.654;21.944;2024-01-10T11:09:52;0.20;;;0.20;;
12675;SDS011;63820;65.654;21.944;2024-01-10T11:24:46;0.20;;;0.20;;
12675;SDS011;63820;65.654;21.944;2024-01-10T11:27:30;1.10;;;0.20;;
12675;SDS011;63820;65.654;21.944;2024-01-10T11:30:18;0.30;;;0.30;;
12675;SDS011;63820;65.654;21.944;2024-01-10T11:33:18;0.20;;;0.20;;
12675;SDS011;63820;65.654;21.944;2024-01-10T11:38:58;0.20;;;0.20;;
12675;SDS011;63820;65.654;21.944;2024-01-10T11:41:45;0.20;;;0.20;;
12675;SDS011;63820;65.654;21.944;2024-01-10T11:44:31;0.20;;;0.20;;
12675;SDS011;63820;65.654;21.944;2024-01-10T11:47:15;0.10;;;0.10;;
12675;SDS011;63820;65.654;21.944;2024-01-10T11:50:02;0.20;;;0.20;;
12675;SDS011;63820;65.654;21.944;2024-01-10T11:52:47;0.20;;;0.20;;
12675;SDS011;63820;65.654;21.944;2024-01-10T11:55:46;0.23;;;0.23;;
12675;SDS011;63820;65.654;21.944;2024-01-10T11:58:31;0.27;;;0.27;;
12675;SDS011;63820;65.654;21.944;2024-01-10T12:01:15;1.13;;;0.67;;
12675;SDS011;63820;65.654;21.944;2024-01-10T12:03:59;1.23;;;0.40;;
12675;SDS011;63820;65.654;21.944;2024-01-10T12:06:44;0.20;;;0.20;;
12675;SDS011;63820;65.654;21.944;2024-01-10T12:09:28;0.20;;;0.20;;
12675;SDS011;63820;65.654;21.944;2024-01-10T12:12:14;0.20;;;0.20;;
12675;SDS011;63820;65.654;21.944;2024-01-10T12:14:58;0.20;;;0.20;;
12675;SDS011;63820;65.654;21.944;2024-01-10T12:17:42;0.20;;;0.20;;
12675;SDS011;63820;65.654;21.944;2024-01-10T12:20:27;0.27;;;0.27;;
12675;SDS011;63820;65.654;21.944;2024-01-10T12:23:12;0.20;;;0.20;;
12675;SDS011;63820;65.654;21.944;2024-01-10T12:25:57;0.10;;;0.10;;
12675;SDS011;63820;65.654;21.944;2024-01-10T12:28:42;0.20;;;0.20;;
12675;SDS011;63820;65.654;21.944;2024-01-10T12:31:37;0.30;;;0.30;;
12675;SDS011;63820;65.654;21.944;2024-01-10T12:34:23;0.20;;;0.20;;
12675;SDS011;63820;65.654;21.944;2024-01-10T12:37:06;0.17;;;0.17;;
12675;SDS011;63820;65.654;21.944;2024-01-10T12:39:51;0.20;;;0.20;;
12675;SDS011;63820;65.654;21.944;2024-01-10T12:42:35;0.20;;;0.20;;
12675;SDS011;63820;65.654;21.944;2024-01-10T12:45:23;0.20;;;0.20;;
12675;SDS011;63820;65.654;21.944;2024-01-10T12:48:07;0.20;;;0.20;;
12675;SDS011;63820;65.654;21.944;2024-01-10T12:50:57;0.20;;;0.20;;
12675;SDS011;63820;65.654;21.944;2024-01-10T12:53:44;0.20;;;0.20;;
12675;SDS011;63820;65.654;21.944;2024-01-10T12:56:28;0.13;;;0.13;;
12675;SDS011;63820;65.654;21.944;2024-01-10T12:59:12;0.20;;;0.20;;
12675;SDS011;63820;65.654;21.944;2024-01-10T13:01:57;0.20;;;0.20;;
12675;SDS011;63820;65.654;21.944;2024-01-10T13:04:41;0.20;;;0.20;;
12675;SDS011;63820;65.654;21.944;2024-01-10T13:07:25;0.20;;;0.20;;
12675;SDS011;63820;65.654;21.944;2024-01-10T13:10:10;0.20;;;0.20;;
12675;SDS011;63820;65.654;21.944;2024-01-10T13:12:56;0.20;;;0.20;;
12675;SDS011;63820;65.654;21.944;2024-01-10T13:15:40;0.20;;;0.20;;
12675;SDS011;63820;65.654;21.944;2024-01-10T13:18:24;0.20;;;0.20;;
12675;SDS011;63820;65.654;21.944;2024-01-10T13:21:08;0.10;;;0.10;;
12675;SDS011;63820;65.654;21.944;2024-01-10T13:23:54;0.20;;;0.20;;
12675;SDS011;63820;65.654;21.944;2024-01-10T13:26:38;0.20;;;0.20;;
12675;SDS011;63820;65.654;21.944;2024-01-10T13:29:22;0.20;;;0.20;;
12675;SDS011;63820;65.654;21.944;2024-01-10T13:32:06;0.20;;;0.20;;
12675;SDS011;63820;65.654;21.944;2024-01-10T13:34:51;0.20;;;0.20;;
12675;SDS011;63820;65.654;21.944;2024-01-10T13:37:35;0.13;;;0.13;;
12675;SDS011;63820;65.654;21.944;2024-01-10T13:40:19;0.20;;;0.20;;
12675;SDS011;63820;65.654;21.944;2024-01-10T13:43:08;0.17;;;0.17;;
12675;SDS011;63820;65.654;21.944;2024-01-10T13:45:52;0.20;;;0.20;;
12675;SDS011;63820;65.654;21.944;2024-01-10T13:48:36;0.20;;;0.20;;
12675;SDS011;63820;65.654;21.944;2024-01-10T13:51:20;0.13;;;0.13;;
12675;SDS011;63820;65.654;21.944;2024-01-10T13:54:04;0.20;;;0.20;;
12675;SDS011;63820;65.654;21.944;2024-01-10T13:56:48;0.30;;;0.10;;
12675;SDS011;63820;65.654;21.944;2024-01-10T13:59:32;0.10;;;0.10;;
12675;SDS011;63820;65.654;21.944;2024-01-10T14:02:16;0.20;;;0.20;;
12675;SDS011;63820;65.654;21.944;2024-01-10T14:05:03;0.50;;;0.20;;
12675;SDS011;63820;65.654;21.944;2024-01-10T14:07:50;0.20;;;0.20;;
12675;SDS011;63820;65.654;21.944;2024-01-10T14:10:35;0.30;;;0.30;;
12675;SDS011;63820;65.654;21.944;2024-01-10T14:13:19;0.20;;;0.20;;
12675;SDS011;63820;65.654;21.944;2024-01-10T14:16:03;0.73;;;0.30;;
12675;SDS011;63820;65.654;21.944;2024-01-10T14:18:47;0.20;;;0.20;;
12675;SDS011;63820;65.654;21.944;2024-01-10T14:21:32;0.20;;;0.20;;
12675;SDS011;63820;65.654;21.944;2024-01-10T14:24:16;0.20;;;0.20;;
12675;SDS011;63820;65.654;21.944;2024-01-10T14:27:00;0.10;;;0.10;;
12675;SDS011;63820;65.654;21.944;2024-01-10T14:29:44;0.63;;;0.63;;
12675;SDS011;63820;65.654;21.944;2024-01-10T14:32:28;0.20;;;0.20;;
12675;SDS011;63820;65.654;21.944;2024-01-10T14:35:12;0.10;;;0.10;;
12675;SDS011;63820;65.654;21.944;2024-01-10T14:37:55;0.20;;;0.20;;
12675;SDS011;63820;65.654;21.944;2024-01-10T14:40:39;0.10;;;0.10;;
12675;SDS011;63820;65.654;21.944;2024-01-10T14:43:23;0.10;;;0.10;;
12675;SDS011;63820;65.654;21.944;2024-01-10T14:46:08;0.20;;;0.20;;
12675;SDS011;63820;65.654;21.944;2024-01-10T14:48:53;0.20;;;0.20;;
12675;SDS011;63820;65.654;21.944;2024-01-10T14:51:38;0.47;;;0.20;;
12675;SDS011;63820;65.654;21.944;2024-01-10T14:54:22;0.20;;;0.20;;
12675;SDS011;63820;65.654;21.944;2024-01-10T14:57:06;0.13;;;0.13;;
12675;SDS011;63820;65.654;21.944;2024-01-10T14:59:51;0.20;;;0.20;;
12675;SDS011;63820;65.654;21.944;2024-01-10T15:02:35;0.20;;;0.20;;
12675;SDS011;63820;65.654;21.944;2024-01-10T15:05:19;0.60;;;0.20;;
12675;SDS011;63820;65.654;21.944;2024-01-10T15:08:04;0.10;;;0.10;;
12675;SDS011;63820;65.654;21.944;2024-01-10T15:10:53;0.73;;;0.20;;
12675;SDS011;63820;65.654;21.944;2024-01-10T15:13:37;0.57;;;0.23;;
12675;SDS011;63820;65.654;21.944;2024-01-10T15:16:26;0.30;;;0.23;;
12675;SDS011;63820;65.654;21.944;2024-01-10T15:19:09;0.20;;;0.20;;
12675;SDS011;63820;65.654;21.944;2024-01-10T15:21:53;0.20;;;0.20;;
12675;SDS011;63820;65.654;21.944;2024-01-10T15:24:37;0.17;;;0.17;;
12675;SDS011;63820;65.654;21.944;2024-01-10T15:27:22;0.30;;;0.30;;
12675;SDS011;63820;65.654;21.944;2024-01-10T15:30:06;0.20;;;0.20;;
12675;SDS011;63820;65.654;21.944;2024-01-10T15:32:51;0.20;;;0.20;;
12675;SDS011;63820;65.654;21.944;2024-01-10T15:35:35;1.20;;;0.20;;
12675;SDS011;63820;65.654;21.944;2024-01-10T15:38:19;0.20;;;0.20;;
12675;SDS011;63820;65.654;21.944;2024-01-10T15:41:08;0.83;;;0.40;;
12675;SDS011;63820;65.654;21.944;2024-01-10T15:43:52;0.20;;;0.20;;
12675;SDS011;63820;65.654;21.944;2024-01-10T15:46:36;0.47;;;0.20;;
12675;SDS011;63820;65.654;21.944;2024-01-10T15:49:20;0.20;;;0.20;;
12675;SDS011;63820;65.654;21.944;2024-01-10T15:52:04;0.17;;;0.17;;
12675;SDS011;63820;65.654;21.944;2024-01-10T15:54:49;0.20;;;0.20;;
12675;SDS011;63820;65.654;21.944;2024-01-10T15:57:37;0.20;;;0.20;;
12675;SDS011;63820;65.654;21.944;2024-01-10T16:00:22;0.20;;;0.20;;
12675;SDS011;63820;65.654;21.944;2024-01-10T16:03:06;1.20;;;0.20;;
12675;SDS011;63820;65.654;21.944;2024-01-10T16:05:50;0.20;;;0.20;;
12675;SDS011;63820;65.654;21.944;2024-01-10T16:08:36;1.10;;;0.30;;
12675;SDS011;63820;65.654;21.944;2024-01-10T16:11:20;0.30;;;0.30;;
12675;SDS011;63820;65.654;21.944;2024-01-10T16:14:04;0.30;;;0.30;;
12675;SDS011;63820;65.654;21.944;2024-01-10T16:16:48;0.10;;;0.10;;
12675;SDS011;63820;65.654;21.944;2024-01-10T16:19:32;0.30;;;0.20;;
12675;SDS011;63820;65.654;21.944;2024-01-10T16:22:16;0.57;;;0.20;;
12675;SDS011;63820;65.654;21.944;2024-01-10T16:25:01;0.20;;;0.20;;
12675;SDS011;63820;65.654;21.944;2024-01-10T16:27:45;0.20;;;0.20;;
12675;SDS011;63820;65.654;21.944;2024-01-10T16:30:29;0.73;;;0.30;;
12675;SDS011;63820;65.654;21.944;2024-01-10T16:33:13;0.20;;;0.20;;